Time;durP1;ratioP1;P1;durP2;ratioP2;P2;SDS_P1;SDS_P2;PMS_P1;PMS_P2;Temp;Humidity;BMP_temperature;BMP_pressure;BME280_temperature;BME280_humidity;BME280_pressure;Samples;Min_cycle;Max_cycle;Signal;HPM_P1;HPM_P2
2022/03/03 00:01:36;;;;;;;24.58;16.63;;;;;;;1.31;60.19;101844.81;5016987;28;20018;-94
2022/03/03 00:04:02;;;;;;;24.88;17.02;;;;;;;1.30;61.10;101837.81;5007793;28;20034;-96
2022/03/03 00:06:27;;;;;;;26.70;17.00;;;;;;;1.27;61.71;101840.44;4996982;28;20044;-96
2022/03/03 00:08:52;;;;;;;26.58;16.50;;;;;;;1.21;61.23;101827.28;5002122;28;20046;-94
2022/03/03 00:11:19;;;;;;;28.98;17.42;;;;;;;1.19;61.56;101829.91;4996964;28;20113;-95
2022/03/03 00:13:44;;;;;;;27.02;17.60;;;;;;;1.21;62.33;101838.69;4995669;28;20030;-95
2022/03/03 00:16:09;;;;;;;26.65;16.70;;;;;;;1.18;61.88;101829.91;4978703;28;20030;-95
2022/03/03 00:18:35;;;;;;;27.40;17.33;;;;;;;1.16;62.49;101835.13;4990474;28;20118;-94
2022/03/03 00:21:00;;;;;;;27.42;17.38;;;;;;;1.15;62.52;101832.53;4987500;28;20034;-94
2022/03/03 00:23:25;;;;;;;25.70;17.23;;;;;;;1.12;62.19;101838.63;4992340;28;20472;-94
2022/03/03 00:25:51;;;;;;;25.00;17.38;;;;;;;1.01;62.35;101822.00;4990483;28;20035;-95
2022/03/03 00:28:16;;;;;;;26.35;17.25;;;;;;;1.01;62.48;101829.84;4992102;28;20100;-94
2022/03/03 00:30:41;;;;;;;25.52;16.48;;;;;;;0.98;62.88;101835.06;4988341;28;20562;-94
2022/03/03 00:33:07;;;;;;;24.50;16.67;;;;;;;0.93;62.80;101832.44;5000442;28;20030;-93
2022/03/03 00:35:32;;;;;;;28.90;18.15;;;;;;;0.88;62.86;101834.16;4992479;28;20196;-93
2022/03/03 00:37:57;;;;;;;28.38;17.63;;;;;;;0.84;62.79;101827.16;4990380;28;20101;-94
2022/03/03 00:40:23;;;;;;;26.80;17.73;;;;;;;0.76;63.04;101821.00;4985568;28;20476;-93
2022/03/03 00:42:48;;;;;;;27.17;17.95;;;;;;;0.79;63.87;101818.38;5006725;28;20026;-94
2022/03/03 00:45:13;;;;;;;28.63;17.73;;;;;;;0.72;63.33;101816.63;4982767;28;20033;-93
2022/03/03 00:47:39;;;;;;;29.08;17.20;;;;;;;0.70;63.58;101815.72;4984785;28;20582;-95
2022/03/03 00:50:05;;;;;;;26.67;17.52;;;;;;;0.63;64.29;101801.72;4982497;28;20073;-94
2022/03/03 00:52:30;;;;;;;32.25;18.73;;;;;;;0.70;64.64;101823.56;4980534;28;20027;-93
2022/03/03 00:54:56;;;;;;;27.67;18.40;;;;;;;0.63;64.49;101812.19;4997405;28;20038;-93
2022/03/03 00:57:21;;;;;;;28.98;17.98;;;;;;;0.57;64.30;101795.56;4983276;28;20121;-93
2022/03/03 00:59:46;;;;;;;26.20;16.95;;;;;;;0.58;64.34;101807.78;4983515;28;20038;-95
2022/03/03 01:02:12;;;;;;;30.13;17.88;;;;;;;0.57;65.05;101811.28;4988890;28;20038;-94
2022/03/03 01:04:37;;;;;;;30.10;19.33;;;;;;;0.56;65.43;101817.38;4982413;28;20038;-94
2022/03/03 01:07:02;;;;;;;32.45;18.75;;;;;;;0.52;65.13;101818.25;4983337;28;20394;-93
2022/03/03 01:09:28;;;;;;;28.30;18.77;;;;;;;0.47;64.97;101813.84;4983886;28;20042;-95
2022/03/03 01:11:53;;;;;;;30.63;19.38;;;;;;;0.45;64.90;101812.94;5000099;28;20065;-95
2022/03/03 01:14:21;;;;;;;27.63;18.80;;;;;;;0.44;65.32;101811.19;5003018;28;20014;-95
2022/03/03 01:16:48;;;;;;;29.55;18.95;;;;;;;0.38;65.74;101811.19;5003624;28;20018;-95
2022/03/03 01:19:13;;;;;;;32.33;19.23;;;;;;;0.34;66.78;101809.41;5013226;28;20054;-94
2022/03/03 01:21:39;;;;;;;27.77;18.35;;;;;;;0.28;66.51;101798.00;5015020;28;20046;-94
2022/03/03 01:24:04;;;;;;;29.17;17.45;;;;;;;0.19;66.58;101783.97;5005437;28;20029;-94
2022/03/03 01:26:30;;;;;;;29.55;18.88;;;;;;;0.21;66.89;101797.97;5011488;28;20114;-93
2022/03/03 01:28:55;;;;;;;27.15;18.40;;;;;;;0.15;66.76;101789.19;5017144;28;20026;-94
2022/03/03 01:31:20;;;;;;;28.05;17.88;;;;;;;0.10;67.99;101797.00;5014723;28;20123;-94
2022/03/03 01:33:46;;;;;;;29.20;17.55;;;;;;;0.06;68.05;101804.84;5011150;28;20038;-95
2022/03/03 01:36:11;;;;;;;28.35;17.67;;;;;;;-0.02;68.31;101800.41;4987140;28;20109;-95
2022/03/03 01:38:36;;;;;;;26.02;17.42;;;;;;;-0.06;68.95;101801.25;4980119;28;20034;-94
2022/03/03 01:41:01;;;;;;;28.23;17.52;;;;;;;-0.14;69.01;101784.59;4998001;28;20078;-93
2022/03/03 01:43:27;;;;;;;27.13;17.60;;;;;;;-0.20;69.15;101781.06;4985200;28;20035;-93
2022/03/03 01:45:52;;;;;;;27.48;17.45;;;;;;;-0.18;69.85;101788.06;5015841;28;20022;-94
2022/03/03 01:48:17;;;;;;;26.20;16.60;;;;;;;-0.22;70.51;101788.91;5014827;28;20583;-93
2022/03/03 01:50:43;;;;;;;28.73;17.70;;;;;;;-0.27;70.24;101781.00;4998071;28;20026;-93
2022/03/03 01:53:08;;;;;;;25.85;16.48;;;;;;;-0.39;71.22;101769.56;4997946;28;20102;-92
2022/03/03 01:55:33;;;;;;;29.88;17.35;;;;;;;-0.34;70.70;101783.56;4990875;28;20392;-94
2022/03/03 01:58:03;;;;;;;29.67;18.10;;;;;;;-0.42;70.90;101780.00;4990510;28;20042;-93
2022/03/03 02:00:28;;;;;;;29.33;18.50;;;;;;;-0.50;71.04;101769.47;4991808;28;20124;-94
2022/03/03 02:02:53;;;;;;;29.65;17.75;;;;;;;-0.44;70.81;101777.38;4986598;28;20023;-94
2022/03/03 02:05:19;;;;;;;28.45;17.73;;;;;;;-0.47;70.88;101769.50;4982134;28;20034;-94
2022/03/03 02:07:44;;;;;;;28.75;18.02;;;;;;;-0.49;71.23;101771.22;4991851;28;20034;-93
2022/03/03 02:10:10;;;;;;;31.55;19.17;;;;;;;-0.54;71.56;101763.34;4995116;28;20018;-93
2022/03/03 02:12:36;;;;;;;30.60;19.05;;;;;;;-0.57;71.79;101762.44;4995855;28;20061;-94
2022/03/03 02:15:01;;;;;;;29.27;17.75;;;;;;;-0.59;71.89;101758.91;4997523;28;20018;-93
2022/03/03 02:17:27;;;;;;;32.00;19.08;;;;;;;-0.61;72.05;101760.66;5019720;28;20042;-94
2022/03/03 02:19:52;;;;;;;31.30;18.73;;;;;;;-0.63;71.77;101757.13;5008626;28;20019;-94
2022/03/03 02:22:17;;;;;;;30.80;18.50;;;;;;;-0.67;72.39;101755.34;5014345;28;20077;-95
2022/03/03 02:24:43;;;;;;;28.92;18.70;;;;;;;-0.72;72.53;101749.19;5011605;28;20029;-94
2022/03/03 02:27:10;;;;;;;28.27;17.13;;;;;;;-0.79;72.46;101740.44;5013128;28;20025;-94
2022/03/03 02:29:36;;;;;;;30.48;18.02;;;;;;;-0.75;72.48;101747.44;5017510;28;20003;-92
2022/03/03 02:32:03;;;;;;;31.08;17.90;;;;;;;-0.80;72.29;101746.50;5018458;28;20030;-93
2022/03/03 02:34:28;;;;;;;30.60;18.70;;;;;;;-0.82;72.56;101738.66;5018389;28;20094;-93
2022/03/03 02:36:54;;;;;;;32.35;17.48;;;;;;;-0.80;72.42;101746.50;5017179;28;20018;-94
2022/03/03 02:39:19;;;;;;;27.58;18.05;;;;;;;-0.81;72.25;101739.53;5017854;28;20041;-94
2022/03/03 02:41:44;;;;;;;30.50;18.13;;;;;;;-0.80;71.98;101738.66;5017097;28;20039;-94
2022/03/03 02:44:10;;;;;;;30.40;18.33;;;;;;;-0.85;72.16;101743.84;5008503;28;20036;-93
2022/03/03 02:46:35;;;;;;;30.80;18.63;;;;;;;-0.86;71.83;101746.47;4997722;28;20098;-94
2022/03/03 02:49:01;;;;;;;28.58;17.92;;;;;;;-0.87;71.73;101745.59;4992959;28;20029;-93
2022/03/03 02:51:26;;;;;;;32.85;19.15;;;;;;;-0.93;71.61;101734.19;4994201;28;20094;-94
2022/03/03 02:53:51;;;;;;;26.85;17.80;;;;;;;-0.93;72.17;101736.78;4996855;28;20046;-94
2022/03/03 02:56:16;;;;;;;32.05;18.05;;;;;;;-0.93;72.17;101744.63;4994339;28;20041;-94
2022/03/03 02:58:42;;;;;;;27.98;18.52;;;;;;;-1.03;72.47;101715.78;4995227;28;20034;-95
2022/03/03 03:01:09;;;;;;;32.70;18.02;;;;;;;-0.94;72.29;101732.44;4981862;28;20483;-94
2022/03/03 03:03:35;;;;;;;31.10;18.75;;;;;;;-0.97;72.55;101733.25;5011019;28;20018;-93
2022/03/03 03:06:01;;;;;;;30.55;18.65;;;;;;;-1.03;72.92;101730.59;5004676;28;20089;-94
2022/03/03 03:08:26;;;;;;;32.30;19.38;;;;;;;-1.02;72.62;101732.34;4998886;28;20136;-94
2022/03/03 03:10:51;;;;;;;29.05;18.50;;;;;;;-1.09;72.48;101734.00;4993413;28;20045;-95
2022/03/03 03:13:17;;;;;;;29.70;17.92;;;;;;;-1.09;72.12;101741.84;4993377;28;20030;-94
2022/03/03 03:15:45;;;;;;;30.10;17.92;;;;;;;-1.10;73.21;101745.31;4992474;28;20061;-94
2022/03/03 03:18:18;;;;;;;28.77;19.00;;;;;;;-1.12;72.86;101739.22;4993009;28;20042;-94
2022/03/03 03:20:48;;;;;;;29.90;19.85;;;;;;;-1.12;73.13;101744.44;4993842;28;20048;-94
2022/03/03 03:23:15;;;;;;;34.20;19.85;;;;;;;-1.16;73.20;101740.03;4990729;28;20042;-95
2022/03/03 03:25:43;;;;;;;29.55;18.40;;;;;;;-1.20;73.23;101738.25;4986492;28;20515;-95
2022/03/03 03:28:09;;;;;;;30.35;19.67;;;;;;;-1.21;73.11;101736.50;4992495;28;20080;-95
2022/03/03 03:30:35;;;;;;;31.35;19.23;;;;;;;-1.26;73.04;101722.47;4981420;28;20167;-95
2022/03/03 03:33:00;;;;;;;30.85;19.48;;;;;;;-1.36;73.19;101707.59;4992268;28;20084;-93
2022/03/03 03:35:25;;;;;;;31.23;18.63;;;;;;;-1.33;73.57;101716.34;4988153;28;20097;-94
2022/03/03 03:37:51;;;;;;;32.83;19.63;;;;;;;-1.34;73.58;101718.91;4992436;28;20121;-95
2022/03/03 03:40:17;;;;;;;32.13;18.17;;;;;;;-1.35;73.79;101719.78;4987108;28;20030;-93
2022/03/03 03:42:43;;;;;;;32.17;19.42;;;;;;;-1.38;74.04;101717.13;5000264;28;20066;-92
2022/03/03 03:45:09;;;;;;;29.60;18.73;;;;;;;-1.40;73.81;101705.78;4987928;28;20050;-92
2022/03/03 03:47:34;;;;;;;31.30;19.05;;;;;;;-1.44;73.32;101704.00;4973318;28;20026;-92
2022/03/03 03:50:02;;;;;;;32.55;19.45;;;;;;;-1.41;74.23;101707.53;4984458;28;20039;-92
2022/03/03 03:52:28;;;;;;;32.08;18.50;;;;;;;-1.57;73.85;101692.53;4988355;28;20190;-92
2022/03/03 03:54:53;;;;;;;30.83;17.48;;;;;;;-1.55;74.26;101691.69;4987536;28;20039;-91
2022/03/03 03:57:18;;;;;;;32.38;19.25;;;;;;;-1.54;74.26;101701.28;4987520;28;20112;-93
2022/03/03 03:59:44;;;;;;;31.10;18.35;;;;;;;-1.60;74.59;101698.56;4987158;28;20093;-93
2022/03/03 04:02:09;;;;;;;31.88;18.52;;;;;;;-1.60;74.61;101706.41;4978558;28;20484;-94
2022/03/03 04:04:34;;;;;;;31.58;17.88;;;;;;;-1.64;74.83;101698.53;4990877;28;20041;-92
2022/03/03 04:07:00;;;;;;;28.25;18.02;;;;;;;-1.66;75.05;101703.72;4998764;28;20030;-91
2022/03/03 04:09:25;;;;;;;32.72;19.48;;;;;;;-1.74;74.46;101692.31;4986980;28;20027;-92
2022/03/03 04:11:50;;;;;;;29.80;18.42;;;;;;;-1.71;74.71;101700.19;4983188;28;20472;-94
2022/03/03 04:14:16;;;;;;;31.95;18.90;;;;;;;-1.76;74.46;101687.09;4993069;28;20038;-93
2022/03/03 04:16:41;;;;;;;30.85;18.75;;;;;;;-1.69;74.92;101697.59;4987713;28;20443;-93
2022/03/03 04:19:06;;;;;;;31.98;19.63;;;;;;;-1.72;74.26;101703.63;4989771;28;20026;-93
2022/03/03 04:21:32;;;;;;;32.13;19.13;;;;;;;-1.72;74.94;101707.97;4987032;28;20130;-92
2022/03/03 04:23:57;;;;;;;34.67;20.33;;;;;;;-1.82;74.91;101686.13;4993648;28;20038;-92
2022/03/03 04:26:23;;;;;;;32.05;20.02;;;;;;;-1.75;75.44;101695.78;4983323;28;20026;-92
2022/03/03 04:28:48;;;;;;;32.28;21.15;;;;;;;-1.85;74.81;101681.72;4991723;28;20046;-93
2022/03/03 04:31:13;;;;;;;30.83;19.50;;;;;;;-1.80;75.56;101692.22;4978593;28;20092;-92
2022/03/03 04:33:39;;;;;;;31.17;20.08;;;;;;;-1.99;75.45;101653.72;4995032;28;20031;-92
2022/03/03 04:36:05;;;;;;;38.85;20.73;;;;;;;-1.85;75.70;101680.84;4990188;28;20053;-94
2022/03/03 04:38:31;;;;;;;32.30;20.00;;;;;;;-1.92;75.60;101676.41;5011520;28;20083;-92
2022/03/03 04:40:56;;;;;;;31.92;19.65;;;;;;;-1.92;75.30;101679.91;5006119;28;20029;-93
2022/03/03 04:43:21;;;;;;;31.02;19.65;;;;;;;-1.94;76.09;101680.72;5012053;28;20065;-92
2022/03/03 04:45:47;;;;;;;31.70;19.67;;;;;;;-1.97;75.78;101671.13;5006561;28;20027;-92
2022/03/03 04:48:12;;;;;;;34.92;20.23;;;;;;;-2.04;76.27;101659.75;5019795;28;20041;-92
2022/03/03 04:50:37;;;;;;;29.58;19.50;;;;;;;-2.08;76.75;101655.34;5008555;28;20023;-94
2022/03/03 04:53:03;;;;;;;34.60;19.77;;;;;;;-2.06;76.08;101666.66;5011460;28;20034;-93
2022/03/03 04:55:28;;;;;;;32.33;18.60;;;;;;;-2.13;76.10;101649.19;5002467;28;20027;-94
2022/03/03 04:57:54;;;;;;;28.38;17.67;;;;;;;-2.10;75.90;101654.41;5011646;28;20031;-94
2022/03/03 05:00:19;;;;;;;33.03;16.98;;;;;;;-2.13;76.00;101659.63;4996617;28;20091;-92
2022/03/03 05:02:45;;;;;;;29.27;17.92;;;;;;;-2.09;75.56;101660.50;4996163;28;20034;-93
2022/03/03 05:05:10;;;;;;;29.95;17.70;;;;;;;-2.09;75.81;101653.59;5006179;28;20015;-95
2022/03/03 05:07:35;;;;;;;27.30;18.10;;;;;;;-2.09;75.04;101661.41;4999317;28;20034;-94
2022/03/03 05:10:01;;;;;;;29.52;18.40;;;;;;;-2.10;75.01;101669.19;4995336;28;20037;-92
2022/03/03 05:12:27;;;;;;;28.55;17.15;;;;;;;-2.17;75.27;101659.53;4995692;28;20257;-93
2022/03/03 05:14:52;;;;;;;30.38;17.02;;;;;;;-2.19;75.36;101666.47;5008811;28;20019;-94
2022/03/03 05:17:17;;;;;;;37.25;18.88;;;;;;;-2.19;75.54;101669.06;5016475;28;20018;-94
2022/03/03 05:19:43;;;;;;;33.28;19.45;;;;;;;-2.28;76.03;101649.81;5011953;28;20027;-93
2022/03/03 05:22:08;;;;;;;30.80;20.42;;;;;;;-2.25;75.58;101662.03;5000544;28;20053;-93
2022/03/03 05:24:34;;;;;;;33.70;20.63;;;;;;;-2.33;75.89;101659.31;4994191;28;20035;-93
2022/03/03 05:26:59;;;;;;;32.75;20.48;;;;;;;-2.34;76.28;101654.97;5017797;28;20110;-90
2022/03/03 05:29:27;;;;;;;32.33;20.27;;;;;;;-2.38;76.45;101649.66;5008543;28;20106;-93
2022/03/03 05:31:52;;;;;;;30.45;18.13;;;;;;;-2.35;76.13;101661.00;5003505;28;20470;-92
2022/03/03 05:34:18;;;;;;;27.42;18.52;;;;;;;-2.37;76.21;101659.25;4997132;28;20041;-93
2022/03/03 05:36:43;;;;;;;30.00;19.40;;;;;;;-2.39;76.52;101666.16;4977029;28;20133;-92
2022/03/03 05:39:09;;;;;;;33.90;19.77;;;;;;;-2.40;76.77;101670.50;4996846;28;20026;-93
2022/03/03 05:41:34;;;;;;;30.08;19.45;;;;;;;-2.43;76.68;101667.84;4996047;28;20026;-91
2022/03/03 05:44:00;;;;;;;29.35;19.02;;;;;;;-2.50;76.29;101663.41;4994601;28;20026;-92
2022/03/03 05:46:26;;;;;;;30.90;18.00;;;;;;;-2.47;76.82;101672.97;4999367;28;20530;-91
2022/03/03 05:48:51;;;;;;;35.40;19.10;;;;;;;-2.53;76.67;101671.16;5009934;28;20037;-92
2022/03/03 05:51:18;;;;;;;32.15;18.02;;;;;;;-2.53;76.27;101666.84;4993230;28;20030;-91
2022/03/03 05:53:43;;;;;;;33.22;19.67;;;;;;;-2.59;76.67;101666.75;4994086;28;20042;-91
2022/03/03 05:56:11;;;;;;;31.75;18.88;;;;;;;-2.58;76.65;101663.28;4988063;28;20045;-91
2022/03/03 05:58:40;;;;;;;29.13;18.15;;;;;;;-2.55;76.60;101676.38;5000391;28;20026;-93
2022/03/03 06:01:06;;;;;;;30.88;18.67;;;;;;;-2.56;76.78;101669.38;4991156;28;20033;-93
2022/03/03 06:03:31;;;;;;;29.63;17.67;;;;;;;-2.55;76.32;101665.94;4995794;28;20030;-93
2022/03/03 06:06:04;;;;;;;30.17;18.55;;;;;;;-2.54;76.43;101665.09;4985872;28;20042;-91
2022/03/03 06:08:41;;;;;;;27.83;17.98;;;;;;;-2.54;76.75;101666.81;4988509;28;20030;-93
2022/03/03 06:11:13;;;;;;;31.17;17.92;;;;;;;-2.61;75.83;101655.41;4984138;28;20029;-91
2022/03/03 06:13:45;;;;;;;30.48;18.95;;;;;;;-2.61;76.23;101647.59;4986987;28;20053;-92
2022/03/03 06:16:11;;;;;;;31.02;19.27;;;;;;;-2.55;76.22;101663.34;4992035;28;20385;-93
2022/03/03 06:18:36;;;;;;;30.65;19.08;;;;;;;-2.56;76.75;101658.09;4992811;28;20067;-93
2022/03/03 06:21:03;;;;;;;31.17;19.65;;;;;;;-2.56;76.43;101660.69;5001132;28;20032;-93
2022/03/03 06:23:30;;;;;;;30.70;20.23;;;;;;;-2.60;76.44;101649.34;4994548;28;20034;-92
2022/03/03 06:26:03;;;;;;;31.58;18.25;;;;;;;-2.60;75.97;101656.28;4986227;28;20049;-92
2022/03/03 06:28:28;;;;;;;28.30;18.27;;;;;;;-2.62;76.45;101661.47;5000367;28;20034;-96
2022/03/03 06:30:54;;;;;;;30.15;17.35;;;;;;;-2.64;76.21;101657.09;4989197;28;20312;-94
2022/03/03 06:33:19;;;;;;;34.97;19.02;;;;;;;-2.62;76.72;101671.03;4990206;28;20419;-93
2022/03/03 06:35:44;;;;;;;33.10;18.15;;;;;;;-2.65;75.75;101671.84;4985655;28;20723;-93
2022/03/03 06:38:09;;;;;;;31.40;17.77;;;;;;;-2.61;76.45;101672.78;4993195;28;20038;-94
2022/03/03 06:40:35;;;;;;;28.90;17.17;;;;;;;-2.68;76.44;101670.91;4992153;28;20045;-92
2022/03/03 06:43:01;;;;;;;29.15;16.48;;;;;;;-2.59;76.55;101676.28;4991184;28;20520;-93
2022/03/03 06:45:28;;;;;;;28.25;17.77;;;;;;;-2.59;76.79;101677.19;4988722;28;20053;-92
2022/03/03 06:47:55;;;;;;;33.05;17.20;;;;;;;-2.59;76.79;101685.00;4989544;28;20030;-94
2022/03/03 06:50:20;;;;;;;31.05;17.80;;;;;;;-2.53;77.12;101685.06;4986124;28;20031;-93
2022/03/03 06:52:48;;;;;;;28.63;17.77;;;;;;;-2.41;77.18;101689.63;4989365;28;20440;-94
2022/03/03 06:55:18;;;;;;;33.53;18.52;;;;;;;-2.30;76.13;101679.34;4990080;28;20034;-93
2022/03/03 06:57:46;;;;;;;33.67;18.15;;;;;;;-2.14;75.74;101685.66;4992268;28;20038;-92
2022/03/03 07:00:12;;;;;;;29.80;17.45;;;;;;;-2.10;75.24;101677.91;4987960;28;20085;-94
2022/03/03 07:02:38;;;;;;;32.40;18.48;;;;;;;-2.07;75.60;101677.06;4992677;28;20037;-93
2022/03/03 07:05:04;;;;;;;33.72;18.45;;;;;;;-2.05;75.05;101681.47;4992497;28;20023;-94
2022/03/03 07:07:32;;;;;;;30.40;18.30;;;;;;;-2.02;74.69;101681.50;4987959;28;20023;-95
2022/03/03 07:09:58;;;;;;;27.58;17.67;;;;;;;-1.92;74.75;101697.28;5003274;28;20046;-93
2022/03/03 07:12:26;;;;;;;30.70;18.08;;;;;;;-1.93;74.86;101692.91;4990884;28;20034;-93
2022/03/03 07:14:51;;;;;;;29.15;18.98;;;;;;;-1.95;74.91;101686.81;4997396;28;20042;-94
2022/03/03 07:17:40;;;;;;;30.42;18.38;;;;;;;-1.88;74.12;101686.03;5014594;28;20026;-94
2022/03/03 07:20:06;;;;;;;31.08;18.52;;;;;;;-1.78;74.41;101695.75;5004380;28;20026;-94
2022/03/03 07:22:56;;;;;;;37.03;19.70;;;;;;;-1.71;73.88;101691.47;5002098;28;20031;-94
2022/03/03 07:25:27;;;;;;;32.70;19.40;;;;;;;-1.64;73.97;101695.91;4981793;28;20082;-95
2022/03/03 07:27:54;;;;;;;31.42;18.73;;;;;;;-1.60;73.70;101701.19;4985905;28;20050;-95
2022/03/03 07:30:19;;;;;;;32.45;19.17;;;;;;;-1.59;73.64;101702.06;4998321;28;20038;-95
2022/03/03 07:32:47;;;;;;;34.42;19.23;;;;;;;-1.51;73.15;101706.53;4994343;28;20041;-94
2022/03/03 07:35:15;;;;;;;34.03;20.42;;;;;;;-1.46;71.98;101698.78;5011073;28;20262;-94
2022/03/03 07:37:53;;;;;;;33.50;19.58;;;;;;;-1.43;72.34;101687.47;5014162;28;20030;-95
2022/03/03 07:40:19;;;;;;;34.88;19.42;;;;;;;-1.35;72.34;101704.09;5012176;28;20105;-94
2022/03/03 07:42:45;;;;;;;33.20;18.80;;;;;;;-1.32;72.25;101706.75;5013104;28;20037;-94
2022/03/03 07:45:11;;;;;;;34.08;17.85;;;;;;;-1.28;71.87;101696.34;5016531;28;20061;-95
2022/03/03 07:47:37;;;;;;;31.17;18.65;;;;;;;-1.15;71.27;101704.34;5012888;28;20090;-95
2022/03/03 07:50:03;;;;;;;29.63;18.65;;;;;;;-1.08;71.64;101709.66;5002279;28;20030;-95
2022/03/03 07:52:29;;;;;;;34.03;18.67;;;;;;;-0.98;71.67;101708.00;5000231;28;20031;-95
2022/03/03 07:54:54;;;;;;;28.42;17.77;;;;;;;-0.88;71.18;101712.47;4997933;28;20042;-93
2022/03/03 07:57:22;;;;;;;29.90;18.10;;;;;;;-0.82;70.52;101695.97;5000506;28;20403;-89
2022/03/03 07:59:56;;;;;;;31.35;17.98;;;;;;;-0.63;68.89;101710.06;4992324;28;20038;-95
2022/03/03 08:02:23;;;;;;;29.90;16.85;;;;;;;-0.55;68.99;101698.81;4997384;28;20061;-93
2022/03/03 08:04:51;;;;;;;29.17;17.77;;;;;;;-0.41;69.24;101703.31;5003777;28;20133;-88
2022/03/03 08:07:17;;;;;;;28.70;16.95;;;;;;;-0.35;67.88;101698.97;4993577;28;20026;-95
2022/03/03 08:09:46;;;;;;;27.13;16.48;;;;;;;-0.30;67.70;101691.16;4994636;28;20030;-94
2022/03/03 08:12:14;;;;;;;30.70;17.13;;;;;;;-0.27;67.41;101688.56;4989540;28;20026;-88
2022/03/03 08:14:39;;;;;;;26.42;15.82;;;;;;;-0.02;66.65;101706.19;4998097;28;20057;-93
2022/03/03 08:17:05;;;;;;;31.02;18.00;;;;;;;-0.05;66.72;101689.59;5004172;28;20038;-90
2022/03/03 08:19:31;;;;;;;29.88;17.13;;;;;;;0.15;66.90;101715.88;5001040;28;20065;-91
2022/03/03 08:21:59;;;;;;;28.63;18.33;;;;;;;0.21;66.56;101719.44;4994815;28;20038;-94
2022/03/03 08:25:05;;;;;;;;;;;;;;;;;;;;;
2022/03/03 08:28:00;;;;;;;;;;;;;;;;;;;;;
2022/03/03 08:30:29;;;;;;;26.17;16.05;;;;;;;0.24;65.07;101680.16;4996454;28;20121;-93
2022/03/03 08:33:19;;;;;;;25.58;16.95;;;;;;;0.38;64.89;101682.84;4994425;28;20058;-91
2022/03/03 08:35:57;;;;;;;27.35;15.90;;;;;;;0.64;64.73;101706.53;4990757;28;20034;-81
2022/03/03 08:38:34;;;;;;;26.42;16.08;;;;;;;0.76;64.04;101707.44;4982998;28;20061;-89
2022/03/03 08:41:02;;;;;;;25.45;15.65;;;;;;;0.76;63.52;101697.84;4992044;28;20015;-93
2022/03/03 08:43:30;;;;;;;26.45;15.75;;;;;;;0.90;63.95;101700.50;4986711;28;20034;-92
2022/03/03 08:46:05;;;;;;;26.85;15.63;;;;;;;0.96;63.31;101693.53;4996342;28;20021;-96
2022/03/03 08:48:32;;;;;;;27.02;15.77;;;;;;;1.11;63.31;101702.28;4986600;28;20045;-92
2022/03/03 08:51:02;;;;;;;25.85;15.98;;;;;;;1.12;63.24;101688.28;5010363;28;20061;-94
2022/03/03 08:53:28;;;;;;;23.92;15.80;;;;;;;1.26;63.11;101694.44;4996479;28;20023;-94
2022/03/03 08:55:58;;;;;;;24.90;15.65;;;;;;;1.33;61.48;101683.06;4997268;28;20046;-95
2022/03/03 08:58:25;;;;;;;28.40;15.55;;;;;;;1.36;61.45;101656.84;5001080;28;20030;-96
2022/03/03 09:00:50;;;;;;;25.80;16.17;;;;;;;1.52;61.75;101667.34;4985313;28;20702;-94
2022/03/03 09:03:21;;;;;;;25.27;15.55;;;;;;;1.74;60.77;101695.31;5001093;28;20023;-94
2022/03/03 09:05:47;;;;;;;23.15;15.35;;;;;;;1.77;59.59;101676.06;5009054;28;20026;-95
2022/03/03 09:08:13;;;;;;;21.75;14.00;;;;;;;2.00;58.34;101696.13;5009054;28;20029;-93
2022/03/03 09:10:38;;;;;;;21.58;12.95;;;;;;;1.88;57.67;101659.44;5010278;28;20074;-94
2022/03/03 09:13:03;;;;;;;24.67;13.95;;;;;;;1.94;57.10;101643.66;5000403;28;20014;-95
2022/03/03 09:15:30;;;;;;;21.70;13.70;;;;;;;2.46;57.24;101690.75;5010971;28;20021;-94
2022/03/03 09:17:56;;;;;;;23.05;14.32;;;;;;;2.75;55.73;101653.81;5010739;28;20094;-94
2022/03/03 09:20:22;;;;;;;22.95;13.85;;;;;;;3.97;53.68;101702.00;4986725;28;20054;-94
2022/03/03 09:22:47;;;;;;;23.70;14.25;;;;;;;5.29;49.92;101678.34;4993835;28;20060;-94
2022/03/03 09:25:13;;;;;;;22.58;13.07;;;;;;;6.95;46.59;101661.94;5012569;28;20330;-94
2022/03/03 09:27:38;;;;;;;22.75;14.20;;;;;;;8.35;41.93;101653.91;4997613;28;20091;-95
2022/03/03 09:30:05;;;;;;;21.80;13.35;;;;;;;9.91;39.92;101683.53;4982818;28;20045;-95
2022/03/03 09:32:30;;;;;;;21.30;14.02;;;;;;;11.00;37.32;101665.38;4991385;28;20030;-94
2022/03/03 09:34:56;;;;;;;19.67;13.60;;;;;;;11.82;36.57;101661.06;4999825;28;20041;-93
2022/03/03 09:37:21;;;;;;;19.25;13.57;;;;;;;12.82;34.32;101658.34;5007204;28;20029;-95
2022/03/03 09:39:49;;;;;;;25.40;14.13;;;;;;;13.82;33.33;101659.66;5005097;28;20042;-96
2022/03/03 09:42:15;;;;;;;20.45;13.98;;;;;;;14.92;30.88;101653.78;5005326;28;20015;-96
2022/03/03 09:44:40;;;;;;;21.10;14.00;;;;;;;15.57;29.70;101668.84;5000451;28;20085;-93
2022/03/03 09:47:06;;;;;;;19.58;13.73;;;;;;;16.16;29.22;101649.16;4996869;28;20022;-96
2022/03/03 09:49:31;;;;;;;20.17;13.98;;;;;;;16.61;27.18;101663.38;4990260;28;20118;-96
2022/03/03 09:51:57;;;;;;;19.90;13.27;;;;;;;16.85;27.62;101661.00;4978282;28;20472;-94
2022/03/03 09:54:22;;;;;;;17.13;13.20;;;;;;;16.78;25.72;101661.50;4987472;28;20108;-94
2022/03/03 09:56:48;;;;;;;21.10;14.10;;;;;;;16.58;25.88;101660.88;5005871;28;20037;-95
2022/03/03 09:59:13;;;;;;;23.08;14.10;;;;;;;17.20;26.15;101648.91;4992128;28;20084;-94
2022/03/03 10:01:39;;;;;;;17.65;12.95;;;;;;;17.72;23.96;101667.81;4980294;28;20030;-96
2022/03/03 10:04:37;;;;;;;17.98;12.85;;;;;;;18.34;27.23;101661.75;4978298;28;20045;-96
2022/03/03 10:07:05;;;;;;;16.25;12.93;;;;;;;18.18;23.21;101656.59;4949099;28;20046;-95
2022/03/03 10:09:31;;;;;;;19.63;13.25;;;;;;;18.55;23.24;101664.78;4976110;28;20450;-92
2022/03/03 10:12:06;;;;;;;16.25;13.00;;;;;;;18.95;23.13;101664.63;4974261;28;20113;-94
2022/03/03 10:14:38;;;;;;;16.50;12.68;;;;;;;19.22;23.82;101651.78;4974610;28;20049;-95
2022/03/03 10:17:05;;;;;;;17.52;13.02;;;;;;;20.06;21.73;101661.59;4983050;28;20030;-94
2022/03/03 10:19:31;;;;;;;18.98;13.95;;;;;;;19.92;21.64;101660.97;4974599;28;20112;-95
2022/03/03 10:21:56;;;;;;;18.23;14.02;;;;;;;20.20;20.81;101657.84;4973103;28;20042;-96
2022/03/03 10:24:29;;;;;;;17.95;13.10;;;;;;;20.15;20.74;101660.03;4964547;28;20511;-94
2022/03/03 10:27:00;;;;;;;16.35;12.95;;;;;;;20.19;21.83;101650.72;4983415;28;20129;-93
2022/03/03 10:29:26;;;;;;;17.08;13.30;;;;;;;20.67;20.37;101638.84;4983719;28;20061;-96
2022/03/03 10:31:54;;;;;;;16.27;13.55;;;;;;;21.15;20.07;101644.75;4983529;28;20042;-95
2022/03/03 10:34:28;;;;;;;17.10;13.02;;;;;;;21.70;20.82;101644.75;4979004;28;20460;-95
2022/03/03 10:37:03;;;;;;;16.08;13.63;;;;;;;21.56;19.58;101637.75;4984171;28;20034;-96
2022/03/03 10:39:41;;;;;;;17.50;12.68;;;;;;;22.26;20.65;101641.69;4975965;28;20042;-93
2022/03/03 10:42:21;;;;;;;15.88;12.93;;;;;;;22.39;19.23;101645.03;4978531;28;20364;-95
2022/03/03 10:44:48;;;;;;;16.48;13.43;;;;;;;22.38;18.35;101630.63;4995045;28;20038;-95
2022/03/03 10:47:16;;;;;;;15.13;12.38;;;;;;;22.61;16.93;101642.16;4970858;28;20555;-95
2022/03/03 10:49:44;;;;;;;15.70;12.43;;;;;;;22.44;17.97;101641.91;4982897;28;20484;-96
2022/03/03 10:52:21;;;;;;;16.27;12.32;;;;;;;22.29;17.80;101652.28;4981955;28;20034;-95
2022/03/03 10:54:53;;;;;;;16.20;12.35;;;;;;;21.68;18.10;101641.28;4991708;28;20026;-96
2022/03/03 10:57:45;;;;;;;16.98;11.73;;;;;;;22.14;20.11;101640.91;4999700;28;20104;-96
2022/03/03 11:00:20;;;;;;;14.95;11.75;;;;;;;22.62;17.31;101638.44;4983707;28;20669;-96
2022/03/03 11:02:48;;;;;;;15.07;11.50;;;;;;;23.04;16.58;101634.75;4976264;28;20100;-96
2022/03/03 11:05:15;;;;;;;16.02;11.85;;;;;;;23.00;16.23;101633.31;4988211;28;20026;-96
2022/03/03 11:07:45;;;;;;;14.40;11.90;;;;;;;22.52;16.13;101631.25;4991085;28;20054;-96
2022/03/03 11:10:21;;;;;;;14.98;12.25;;;;;;;21.96;16.80;101623.53;4992190;28;20030;-96
2022/03/03 11:12:49;;;;;;;16.20;11.27;;;;;;;21.81;16.28;101615.69;4985095;28;20042;-96
2022/03/03 11:15:18;;;;;;;13.85;10.98;;;;;;;21.31;16.79;101615.41;4981571;28;20388;-96